Aeroporto :
LOGIN :

Iscrizione | Disclaimer

   EN    FR    IT 

 










Sommario :    VFR   VFR Marginale   IFR   IFR Intensivo   IFR Molto Intensivo
Visibilità : 
Base nubi : 
>= 8 km
>= 3000ft
5 / 8 km
1000 / 3000 ft
1500m / 5 km
500 / 1000 ft
800 / 1500m
200 / 500 ft
< 800m
< 200 ft
Simboli :   Temporali  Nebbia  Neve Forte  Precipitazioni Forti  Vento > 20 kt
SIGMETs :   Varie  Temporali  Ghiacco  Turbolenza  Onda orograficha  Ceneri Vulcaniche







- Altitudine del aeroporto : 124 ft
- Codice IATA : NHT
- Carte del aeroporto


EGWU - RAF Northolt

ULTIMO METAR :
  • 221350Z 17002KT 5000 RA FEW015 OVC045 12/10 Q1018 WHT BECMG SCT015 WHT

METARs OBSOLETI :
  • 221250Z 26003KT 9999 FEW024 OVC045 12/10 Q1018 BLU NOSIG
  • 221150Z 28004KT 8000 -RA OVC040 12/10 Q1019 BLU TEMPO 7000 RA WHT
  • 221128Z 30005KT 6000 RA OVC040 12/10 Q1020 WHT TEMPO 9999 -RA BLU

TAF TAF EGWU
Valido dal 22 a 15 ore il 23 a 09 ore UTC


221330Z 2215/2309 24008KT 9999 BKN025
BECMG 2215/2218 BKN008
TEMPO 2215/2303 4000 RADZ BKN004
BECMG 2303/2306 BKN025
TEMPO 2303/2309 4000 +RA SCT010
Nessun NOTAM noto per questo aeroporto.
2 SIGMETs conosciuti per la FIR London (EGTT) :
 
Forte formazione di ghiaccio
EGTT SIGMET 06 VALID 221400/221800 EGRR
EGTT LONDON FIR SEV ICE FCST WI N5100 E00128 - N5040 E00128 - N5011 E00014 - N5155 W00407 - N5245 W00251 - N5102 E00139 - N5100 E00128 FL060/150 MOV E 25KT NC=
Forte formazione di ghiaccio
EGTT SIGMET 05 VALID 221000/221400 EGRR
EGTT LONDON FIR SEV ICE FCST WI N5013 W00212 - N5140 W00530 - N5229 W00432 - N5050 W00005 - N5013 W00212 FL060/150 MOV E 25KT NC=



MetMap, La meteo Aeronautica in un colpo d'occhio ! - Copyright ORBIFLY Dicembre 2007 - Disclaimer

ORBIFLY MET'MAP TEAM :

Programmazione e sviluppo : Alexandra Zaïnal
Concezione e sviluppo : Baudouin d'Aumeries
Co-Programmazione e sviluppo : Marc-Olivier Méhu
Supporto tecnico e logistico : Manuel Goepfert
Aiuto per la traduzione : Arnaldo La Scala

Contatto : metmap@orbifly.com




FONTI E CREDITI :

   NOAA